sensor_id;sensor_type;location;lat;lon;timestamp;P1;durP1;ratioP1;P2;durP2;ratioP2
38629;SDS011;24384;51.988;4.644;2022-10-16T00:00:39;6.22;;;1.05;;
38629;SDS011;24384;51.988;4.644;2022-10-16T00:03:06;8.30;;;1.90;;
38629;SDS011;24384;51.988;4.644;2022-10-16T00:05:32;4.47;;;1.02;;
38629;SDS011;24384;51.988;4.644;2022-10-16T00:08:02;4.82;;;1.08;;
38629;SDS011;24384;51.988;4.644;2022-10-16T00:10:28;5.72;;;1.55;;
38629;SDS011;24384;51.988;4.644;2022-10-16T00:12:53;4.80;;;1.30;;
38629;SDS011;24384;51.988;4.644;2022-10-16T00:15:19;4.22;;;1.65;;
38629;SDS011;24384;51.988;4.644;2022-10-16T00:17:44;7.13;;;1.48;;
38629;SDS011;24384;51.988;4.644;2022-10-16T00:20:10;4.03;;;1.20;;
38629;SDS011;24384;51.988;4.644;2022-10-16T00:22:35;6.72;;;1.48;;
38629;SDS011;24384;51.988;4.644;2022-10-16T00:25:01;4.28;;;1.42;;
38629;SDS011;24384;51.988;4.644;2022-10-16T00:27:27;5.32;;;1.25;;
38629;SDS011;24384;51.988;4.644;2022-10-16T00:29:53;5.50;;;1.35;;
38629;SDS011;24384;51.988;4.644;2022-10-16T00:32:19;3.97;;;1.25;;
38629;SDS011;24384;51.988;4.644;2022-10-16T00:34:44;3.25;;;0.90;;
38629;SDS011;24384;51.988;4.644;2022-10-16T00:37:10;5.05;;;1.10;;
38629;SDS011;24384;51.988;4.644;2022-10-16T00:39:36;2.83;;;0.90;;
38629;SDS011;24384;51.988;4.644;2022-10-16T00:42:02;4.68;;;1.80;;
38629;SDS011;24384;51.988;4.644;2022-10-16T00:44:45;3.45;;;0.90;;
38629;SDS011;24384;51.988;4.644;2022-10-16T00:47:24;4.22;;;1.38;;
38629;SDS011;24384;51.988;4.644;2022-10-16T00:50:39;5.10;;;1.30;;
38629;SDS011;24384;51.988;4.644;2022-10-16T00:52:55;5.65;;;1.20;;
38629;SDS011;24384;51.988;4.644;2022-10-16T00:55:21;5.47;;;1.33;;
38629;SDS011;24384;51.988;4.644;2022-10-16T00:57:47;4.93;;;1.13;;
38629;SDS011;24384;51.988;4.644;2022-10-16T01:00:15;3.35;;;1.40;;
38629;SDS011;24384;51.988;4.644;2022-10-16T01:02:44;6.20;;;1.40;;
38629;SDS011;24384;51.988;4.644;2022-10-16T01:05:09;6.72;;;1.65;;
38629;SDS011;24384;51.988;4.644;2022-10-16T01:10:34;4.57;;;1.40;;
38629;SDS011;24384;51.988;4.644;2022-10-16T01:13:12;5.13;;;1.60;;
38629;SDS011;24384;51.988;4.644;2022-10-16T01:21:08;3.80;;;1.50;;
38629;SDS011;24384;51.988;4.644;2022-10-16T01:31:26;4.03;;;1.08;;
38629;SDS011;24384;51.988;4.644;2022-10-16T01:33:57;4.63;;;1.50;;
38629;SDS011;24384;51.988;4.644;2022-10-16T01:36:31;5.40;;;1.58;;
38629;SDS011;24384;51.988;4.644;2022-10-16T01:39:02;4.28;;;1.30;;
38629;SDS011;24384;51.988;4.644;2022-10-16T01:41:33;4.35;;;1.50;;
38629;SDS011;24384;51.988;4.644;2022-10-16T01:44:07;3.15;;;1.13;;
38629;SDS011;24384;51.988;4.644;2022-10-16T01:46:37;4.47;;;1.30;;
38629;SDS011;24384;51.988;4.644;2022-10-16T01:49:04;5.18;;;1.23;;
38629;SDS011;24384;51.988;4.644;2022-10-16T01:51:33;6.45;;;1.50;;
38629;SDS011;24384;51.988;4.644;2022-10-16T01:54:00;5.47;;;1.95;;
38629;SDS011;24384;51.988;4.644;2022-10-16T01:56:27;4.35;;;1.40;;
38629;SDS011;24384;51.988;4.644;2022-10-16T01:59:05;5.10;;;2.28;;
38629;SDS011;24384;51.988;4.644;2022-10-16T02:01:35;4.15;;;1.80;;
38629;SDS011;24384;51.988;4.644;2022-10-16T02:04:09;4.13;;;1.77;;
38629;SDS011;24384;51.988;4.644;2022-10-16T02:06:38;8.00;;;2.20;;
38629;SDS011;24384;51.988;4.644;2022-10-16T02:09:03;3.65;;;1.40;;
38629;SDS011;24384;51.988;4.644;2022-10-16T02:11:29;8.27;;;2.10;;
38629;SDS011;24384;51.988;4.644;2022-10-16T02:13:55;7.57;;;1.63;;
38629;SDS011;24384;51.988;4.644;2022-10-16T02:16:41;6.70;;;1.80;;
38629;SDS011;24384;51.988;4.644;2022-10-16T02:19:08;4.30;;;1.73;;
38629;SDS011;24384;51.988;4.644;2022-10-16T02:24:28;3.85;;;1.80;;
38629;SDS011;24384;51.988;4.644;2022-10-16T02:27:00;5.25;;;2.20;;
38629;SDS011;24384;51.988;4.644;2022-10-16T02:29:27;4.28;;;1.95;;
38629;SDS011;24384;51.988;4.644;2022-10-16T02:31:57;5.50;;;2.03;;
38629;SDS011;24384;51.988;4.644;2022-10-16T02:34:27;4.80;;;1.80;;
38629;SDS011;24384;51.988;4.644;2022-10-16T02:36:55;10.35;;;2.42;;
38629;SDS011;24384;51.988;4.644;2022-10-16T02:39:22;5.18;;;1.90;;
38629;SDS011;24384;51.988;4.644;2022-10-16T02:41:48;5.38;;;2.35;;
38629;SDS011;24384;51.988;4.644;2022-10-16T02:44:13;7.70;;;1.67;;
38629;SDS011;24384;51.988;4.644;2022-10-16T02:46:39;4.78;;;1.88;;
38629;SDS011;24384;51.988;4.644;2022-10-16T02:49:04;4.63;;;2.00;;
38629;SDS011;24384;51.988;4.644;2022-10-16T02:51:30;8.25;;;1.80;;
38629;SDS011;24384;51.988;4.644;2022-10-16T02:53:55;6.13;;;2.03;;
38629;SDS011;24384;51.988;4.644;2022-10-16T02:56:21;5.53;;;1.75;;
38629;SDS011;24384;51.988;4.644;2022-10-16T02:58:46;5.45;;;2.00;;
38629;SDS011;24384;51.988;4.644;2022-10-16T03:01:12;6.10;;;1.88;;
38629;SDS011;24384;51.988;4.644;2022-10-16T03:03:39;7.97;;;2.10;;
38629;SDS011;24384;51.988;4.644;2022-10-16T03:06:04;5.32;;;1.85;;
38629;SDS011;24384;51.988;4.644;2022-10-16T03:08:30;7.45;;;1.80;;
38629;SDS011;24384;51.988;4.644;2022-10-16T03:10:56;4.00;;;1.77;;
38629;SDS011;24384;51.988;4.644;2022-10-16T03:13:21;6.57;;;2.10;;
38629;SDS011;24384;51.988;4.644;2022-10-16T03:15:47;3.78;;;2.08;;
38629;SDS011;24384;51.988;4.644;2022-10-16T03:18:12;5.53;;;1.77;;
38629;SDS011;24384;51.988;4.644;2022-10-16T03:20:38;7.30;;;2.00;;
38629;SDS011;24384;51.988;4.644;2022-10-16T03:23:03;6.90;;;1.80;;
38629;SDS011;24384;51.988;4.644;2022-10-16T03:25:28;5.63;;;2.03;;
38629;SDS011;24384;51.988;4.644;2022-10-16T03:27:54;7.28;;;1.85;;
38629;SDS011;24384;51.988;4.644;2022-10-16T03:30:19;6.93;;;1.80;;
38629;SDS011;24384;51.988;4.644;2022-10-16T03:32:45;4.70;;;1.85;;
38629;SDS011;24384;51.988;4.644;2022-10-16T03:35:11;9.65;;;1.88;;
38629;SDS011;24384;51.988;4.644;2022-10-16T03:37:37;4.97;;;1.50;;
38629;SDS011;24384;51.988;4.644;2022-10-16T03:40:03;5.90;;;1.60;;
38629;SDS011;24384;51.988;4.644;2022-10-16T03:42:29;5.93;;;1.70;;
38629;SDS011;24384;51.988;4.644;2022-10-16T03:44:54;4.80;;;1.63;;
38629;SDS011;24384;51.988;4.644;2022-10-16T03:47:20;3.97;;;1.50;;
38629;SDS011;24384;51.988;4.644;2022-10-16T03:49:48;3.83;;;1.40;;
38629;SDS011;24384;51.988;4.644;2022-10-16T03:52:13;6.15;;;1.40;;
38629;SDS011;24384;51.988;4.644;2022-10-16T03:54:39;5.72;;;1.45;;
38629;SDS011;24384;51.988;4.644;2022-10-16T03:57:04;4.82;;;1.38;;
38629;SDS011;24384;51.988;4.644;2022-10-16T03:59:30;6.70;;;1.60;;
38629;SDS011;24384;51.988;4.644;2022-10-16T04:01:55;6.30;;;1.70;;
38629;SDS011;24384;51.988;4.644;2022-10-16T04:04:21;5.13;;;1.30;;
38629;SDS011;24384;51.988;4.644;2022-10-16T04:06:46;5.20;;;1.52;;
38629;SDS011;24384;51.988;4.644;2022-10-16T04:09:11;3.95;;;1.30;;
38629;SDS011;24384;51.988;4.644;2022-10-16T04:11:37;3.95;;;1.40;;
38629;SDS011;24384;51.988;4.644;2022-10-16T04:14:02;4.65;;;1.52;;
38629;SDS011;24384;51.988;4.644;2022-10-16T04:16:28;6.43;;;1.60;;
38629;SDS011;24384;51.988;4.644;2022-10-16T04:18:53;6.05;;;1.70;;
38629;SDS011;24384;51.988;4.644;2022-10-16T04:21:19;4.43;;;1.50;;
38629;SDS011;24384;51.988;4.644;2022-10-16T04:23:44;6.20;;;1.50;;
38629;SDS011;24384;51.988;4.644;2022-10-16T04:26:09;7.97;;;1.75;;
38629;SDS011;24384;51.988;4.644;2022-10-16T04:28:35;3.15;;;1.52;;
38629;SDS011;24384;51.988;4.644;2022-10-16T04:31:03;5.60;;;1.80;;
38629;SDS011;24384;51.988;4.644;2022-10-16T04:33:29;7.03;;;1.55;;
38629;SDS011;24384;51.988;4.644;2022-10-16T04:35:58;6.47;;;1.30;;
38629;SDS011;24384;51.988;4.644;2022-10-16T04:38:25;5.70;;;1.50;;
38629;SDS011;24384;51.988;4.644;2022-10-16T04:40:51;3.95;;;1.50;;
38629;SDS011;24384;51.988;4.644;2022-10-16T04:43:17;4.20;;;1.80;;
38629;SDS011;24384;51.988;4.644;2022-10-16T04:45:42;5.80;;;1.65;;
38629;SDS011;24384;51.988;4.644;2022-10-16T04:48:07;3.03;;;1.40;;
38629;SDS011;24384;51.988;4.644;2022-10-16T04:50:33;4.07;;;1.58;;
38629;SDS011;24384;51.988;4.644;2022-10-16T04:52:58;4.68;;;1.45;;
38629;SDS011;24384;51.988;4.644;2022-10-16T04:55:24;4.10;;;1.50;;
38629;SDS011;24384;51.988;4.644;2022-10-16T04:57:49;5.47;;;1.70;;
38629;SDS011;24384;51.988;4.644;2022-10-16T05:00:15;6.38;;;1.70;;
38629;SDS011;24384;51.988;4.644;2022-10-16T05:02:40;4.20;;;1.50;;
38629;SDS011;24384;51.988;4.644;2022-10-16T05:05:06;4.97;;;1.73;;
38629;SDS011;24384;51.988;4.644;2022-10-16T05:07:32;5.53;;;1.70;;
38629;SDS011;24384;51.988;4.644;2022-10-16T05:09:57;6.38;;;1.70;;
38629;SDS011;24384;51.988;4.644;2022-10-16T05:12:22;4.85;;;1.50;;
38629;SDS011;24384;51.988;4.644;2022-10-16T05:14:48;6.28;;;1.67;;
38629;SDS011;24384;51.988;4.644;2022-10-16T05:17:13;6.78;;;1.55;;
38629;SDS011;24384;51.988;4.644;2022-10-16T05:19:39;6.93;;;2.10;;
38629;SDS011;24384;51.988;4.644;2022-10-16T05:22:04;4.22;;;1.73;;
38629;SDS011;24384;51.988;4.644;2022-10-16T05:24:30;6.22;;;1.33;;
38629;SDS011;24384;51.988;4.644;2022-10-16T05:26:55;6.60;;;1.83;;
38629;SDS011;24384;51.988;4.644;2022-10-16T05:29:21;4.70;;;1.50;;
38629;SDS011;24384;51.988;4.644;2022-10-16T05:31:46;3.10;;;1.70;;
38629;SDS011;24384;51.988;4.644;2022-10-16T05:34:14;7.63;;;1.63;;
38629;SDS011;24384;51.988;4.644;2022-10-16T05:36:39;10.60;;;2.25;;
38629;SDS011;24384;51.988;4.644;2022-10-16T05:39:05;3.28;;;1.58;;
38629;SDS011;24384;51.988;4.644;2022-10-16T05:41:30;6.00;;;1.90;;
38629;SDS011;24384;51.988;4.644;2022-10-16T05:43:56;7.00;;;1.90;;
38629;SDS011;24384;51.988;4.644;2022-10-16T05:46:22;8.20;;;1.85;;
38629;SDS011;24384;51.988;4.644;2022-10-16T05:48:47;5.53;;;1.65;;
38629;SDS011;24384;51.988;4.644;2022-10-16T05:51:13;4.60;;;1.65;;
38629;SDS011;24384;51.988;4.644;2022-10-16T05:53:40;6.78;;;2.08;;
38629;SDS011;24384;51.988;4.644;2022-10-16T05:56:08;4.82;;;1.60;;
38629;SDS011;24384;51.988;4.644;2022-10-16T05:58:35;5.32;;;1.60;;
38629;SDS011;24384;51.988;4.644;2022-10-16T06:01:06;11.32;;;2.30;;
38629;SDS011;24384;51.988;4.644;2022-10-16T06:03:42;9.25;;;1.50;;
38629;SDS011;24384;51.988;4.644;2022-10-16T06:06:09;5.15;;;1.83;;
38629;SDS011;24384;51.988;4.644;2022-10-16T06:08:42;6.15;;;1.80;;
38629;SDS011;24384;51.988;4.644;2022-10-16T06:11:09;5.57;;;1.70;;
38629;SDS011;24384;51.988;4.644;2022-10-16T06:13:36;6.25;;;1.65;;
38629;SDS011;24384;51.988;4.644;2022-10-16T06:16:02;7.25;;;1.50;;
38629;SDS011;24384;51.988;4.644;2022-10-16T06:18:29;6.80;;;1.92;;
38629;SDS011;24384;51.988;4.644;2022-10-16T06:20:54;6.63;;;1.70;;
38629;SDS011;24384;51.988;4.644;2022-10-16T06:23:21;5.90;;;1.20;;
38629;SDS011;24384;51.988;4.644;2022-10-16T06:25:47;7.90;;;1.20;;
38629;SDS011;24384;51.988;4.644;2022-10-16T06:28:15;5.55;;;1.40;;
38629;SDS011;24384;51.988;4.644;2022-10-16T06:30:41;5.70;;;1.13;;
38629;SDS011;24384;51.988;4.644;2022-10-16T06:33:09;7.88;;;1.25;;
38629;SDS011;24384;51.988;4.644;2022-10-16T06:35:37;4.57;;;0.93;;
38629;SDS011;24384;51.988;4.644;2022-10-16T06:38:03;9.80;;;1.10;;
38629;SDS011;24384;51.988;4.644;2022-10-16T06:40:28;7.80;;;2.03;;
38629;SDS011;24384;51.988;4.644;2022-10-16T06:42:57;8.13;;;1.05;;
38629;SDS011;24384;51.988;4.644;2022-10-16T06:45:22;6.88;;;1.08;;
38629;SDS011;24384;51.988;4.644;2022-10-16T06:47:48;5.50;;;1.15;;
38629;SDS011;24384;51.988;4.644;2022-10-16T06:50:13;4.13;;;0.80;;
38629;SDS011;24384;51.988;4.644;2022-10-16T06:52:39;5.25;;;0.88;;
38629;SDS011;24384;51.988;4.644;2022-10-16T06:55:04;5.38;;;1.30;;
38629;SDS011;24384;51.988;4.644;2022-10-16T06:57:30;5.63;;;1.10;;
38629;SDS011;24384;51.988;4.644;2022-10-16T06:59:56;4.28;;;1.00;;
38629;SDS011;24384;51.988;4.644;2022-10-16T07:02:21;7.13;;;1.27;;
38629;SDS011;24384;51.988;4.644;2022-10-16T07:04:47;6.32;;;1.20;;
38629;SDS011;24384;51.988;4.644;2022-10-16T07:07:12;7.38;;;1.55;;
38629;SDS011;24384;51.988;4.644;2022-10-16T07:09:37;5.25;;;1.42;;
38629;SDS011;24384;51.988;4.644;2022-10-16T07:12:03;8.98;;;1.42;;
38629;SDS011;24384;51.988;4.644;2022-10-16T07:14:28;4.82;;;1.00;;
38629;SDS011;24384;51.988;4.644;2022-10-16T07:16:55;5.90;;;1.33;;
38629;SDS011;24384;51.988;4.644;2022-10-16T07:19:20;5.65;;;1.38;;
38629;SDS011;24384;51.988;4.644;2022-10-16T07:21:46;5.10;;;1.50;;
38629;SDS011;24384;51.988;4.644;2022-10-16T07:24:12;6.25;;;1.38;;
38629;SDS011;24384;51.988;4.644;2022-10-16T07:26:39;10.18;;;1.75;;
38629;SDS011;24384;51.988;4.644;2022-10-16T07:29:07;6.72;;;1.95;;
38629;SDS011;24384;51.988;4.644;2022-10-16T07:31:40;7.90;;;1.83;;
38629;SDS011;24384;51.988;4.644;2022-10-16T07:34:07;6.63;;;1.70;;
38629;SDS011;24384;51.988;4.644;2022-10-16T07:36:32;11.23;;;1.85;;
38629;SDS011;24384;51.988;4.644;2022-10-16T07:38:57;8.60;;;1.42;;
38629;SDS011;24384;51.988;4.644;2022-10-16T07:41:23;5.75;;;1.20;;
38629;SDS011;24384;51.988;4.644;2022-10-16T07:43:49;5.75;;;1.30;;
38629;SDS011;24384;51.988;4.644;2022-10-16T07:46:19;8.30;;;1.40;;
38629;SDS011;24384;51.988;4.644;2022-10-16T07:48:46;6.50;;;1.70;;
38629;SDS011;24384;51.988;4.644;2022-10-16T07:51:17;8.02;;;1.50;;
38629;SDS011;24384;51.988;4.644;2022-10-16T07:53:44;4.30;;;1.30;;
38629;SDS011;24384;51.988;4.644;2022-10-16T07:56:10;6.57;;;1.15;;
38629;SDS011;24384;51.988;4.644;2022-10-16T07:58:36;5.25;;;1.52;;
38629;SDS011;24384;51.988;4.644;2022-10-16T08:01:03;10.10;;;1.23;;
38629;SDS011;24384;51.988;4.644;2022-10-16T08:03:31;6.43;;;1.10;;
38629;SDS011;24384;51.988;4.644;2022-10-16T08:06:00;6.63;;;1.13;;
38629;SDS011;24384;51.988;4.644;2022-10-16T08:08:27;8.07;;;1.40;;
38629;SDS011;24384;51.988;4.644;2022-10-16T08:10:53;7.43;;;1.42;;
38629;SDS011;24384;51.988;4.644;2022-10-16T08:13:19;5.28;;;1.05;;
38629;SDS011;24384;51.988;4.644;2022-10-16T08:15:45;8.68;;;1.33;;
38629;SDS011;24384;51.988;4.644;2022-10-16T08:18:11;8.23;;;1.77;;
38629;SDS011;24384;51.988;4.644;2022-10-16T08:20:37;7.82;;;1.50;;
38629;SDS011;24384;51.988;4.644;2022-10-16T08:23:03;7.90;;;1.67;;
38629;SDS011;24384;51.988;4.644;2022-10-16T08:25:30;11.68;;;1.92;;
38629;SDS011;24384;51.988;4.644;2022-10-16T08:28:08;9.45;;;1.52;;
38629;SDS011;24384;51.988;4.644;2022-10-16T08:30:36;10.88;;;1.90;;
38629;SDS011;24384;51.988;4.644;2022-10-16T08:33:02;8.15;;;1.40;;
38629;SDS011;24384;51.988;4.644;2022-10-16T08:35:27;10.55;;;1.50;;
38629;SDS011;24384;51.988;4.644;2022-10-16T08:37:53;6.45;;;1.40;;
38629;SDS011;24384;51.988;4.644;2022-10-16T08:40:20;6.97;;;1.55;;
38629;SDS011;24384;51.988;4.644;2022-10-16T08:48:46;9.05;;;1.45;;
38629;SDS011;24384;51.988;4.644;2022-10-16T08:51:24;6.60;;;1.33;;
38629;SDS011;24384;51.988;4.644;2022-10-16T08:53:53;8.93;;;1.52;;
38629;SDS011;24384;51.988;4.644;2022-10-16T08:56:21;14.32;;;1.50;;
38629;SDS011;24384;51.988;4.644;2022-10-16T08:58:47;7.70;;;1.30;;
38629;SDS011;24384;51.988;4.644;2022-10-16T09:01:14;10.30;;;1.75;;
38629;SDS011;24384;51.988;4.644;2022-10-16T09:03:45;11.05;;;1.60;;
38629;SDS011;24384;51.988;4.644;2022-10-16T09:06:40;10.27;;;1.75;;
38629;SDS011;24384;51.988;4.644;2022-10-16T09:11:49;9.88;;;1.98;;
38629;SDS011;24384;51.988;4.644;2022-10-16T09:15:20;9.13;;;1.55;;
38629;SDS011;24384;51.988;4.644;2022-10-16T09:17:40;15.70;;;2.17;;
38629;SDS011;24384;51.988;4.644;2022-10-16T09:20:14;10.98;;;1.90;;
38629;SDS011;24384;51.988;4.644;2022-10-16T09:22:45;9.60;;;1.42;;
38629;SDS011;24384;51.988;4.644;2022-10-16T09:25:11;9.23;;;1.50;;
38629;SDS011;24384;51.988;4.644;2022-10-16T09:27:39;9.10;;;1.75;;
38629;SDS011;24384;51.988;4.644;2022-10-16T09:30:12;12.95;;;1.75;;
38629;SDS011;24384;51.988;4.644;2022-10-16T09:32:39;11.38;;;1.67;;
38629;SDS011;24384;51.988;4.644;2022-10-16T09:35:09;10.90;;;1.67;;
38629;SDS011;24384;51.988;4.644;2022-10-16T09:37:42;8.55;;;2.35;;
38629;SDS011;24384;51.988;4.644;2022-10-16T09:40:13;11.23;;;1.92;;
38629;SDS011;24384;51.988;4.644;2022-10-16T09:42:49;11.68;;;1.73;;
38629;SDS011;24384;51.988;4.644;2022-10-16T09:45:21;7.78;;;1.58;;
38629;SDS011;24384;51.988;4.644;2022-10-16T09:47:48;8.13;;;1.52;;
38629;SDS011;24384;51.988;4.644;2022-10-16T09:50:22;14.77;;;1.90;;
38629;SDS011;24384;51.988;4.644;2022-10-16T09:52:51;14.73;;;3.38;;
38629;SDS011;24384;51.988;4.644;2022-10-16T09:55:27;10.35;;;1.67;;
38629;SDS011;24384;51.988;4.644;2022-10-16T09:57:53;11.85;;;1.83;;
38629;SDS011;24384;51.988;4.644;2022-10-16T10:00:20;11.98;;;1.65;;
38629;SDS011;24384;51.988;4.644;2022-10-16T10:02:46;10.00;;;1.90;;
38629;SDS011;24384;51.988;4.644;2022-10-16T10:07:56;7.20;;;1.35;;
38629;SDS011;24384;51.988;4.644;2022-10-16T10:10:28;7.40;;;1.60;;
38629;SDS011;24384;51.988;4.644;2022-10-16T10:12:55;11.15;;;2.05;;
38629;SDS011;24384;51.988;4.644;2022-10-16T10:15:21;9.77;;;1.60;;
38629;SDS011;24384;51.988;4.644;2022-10-16T10:17:55;12.45;;;2.08;;
38629;SDS011;24384;51.988;4.644;2022-10-16T10:20:32;11.45;;;1.85;;
38629;SDS011;24384;51.988;4.644;2022-10-16T10:23:00;11.88;;;1.88;;
38629;SDS011;24384;51.988;4.644;2022-10-16T10:30:34;12.10;;;1.80;;
38629;SDS011;24384;51.988;4.644;2022-10-16T10:33:46;13.43;;;2.15;;
38629;SDS011;24384;51.988;4.644;2022-10-16T10:41:08;14.70;;;2.33;;
38629;SDS011;24384;51.988;4.644;2022-10-16T10:50:05;12.23;;;1.70;;
38629;SDS011;24384;51.988;4.644;2022-10-16T11:01:16;8.70;;;1.55;;
38629;SDS011;24384;51.988;4.644;2022-10-16T11:08:53;6.88;;;1.40;;
38629;SDS011;24384;51.988;4.644;2022-10-16T11:11:46;10.10;;;1.75;;
38629;SDS011;24384;51.988;4.644;2022-10-16T11:27:50;6.47;;;1.85;;
38629;SDS011;24384;51.988;4.644;2022-10-16T11:30:20;7.15;;;1.70;;
38629;SDS011;24384;51.988;4.644;2022-10-16T11:38:53;8.60;;;1.73;;
38629;SDS011;24384;51.988;4.644;2022-10-16T11:46:28;8.25;;;1.75;;
38629;SDS011;24384;51.988;4.644;2022-10-16T11:49:00;5.90;;;1.25;;
38629;SDS011;24384;51.988;4.644;2022-10-16T11:51:43;10.95;;;1.70;;
38629;SDS011;24384;51.988;4.644;2022-10-16T11:54:22;8.73;;;2.00;;
38629;SDS011;24384;51.988;4.644;2022-10-16T11:57:33;8.75;;;1.40;;
38629;SDS011;24384;51.988;4.644;2022-10-16T12:02:37;10.65;;;1.92;;
38629;SDS011;24384;51.988;4.644;2022-10-16T12:08:04;8.15;;;1.63;;
38629;SDS011;24384;51.988;4.644;2022-10-16T12:10:36;8.82;;;1.40;;
38629;SDS011;24384;51.988;4.644;2022-10-16T12:13:04;15.23;;;3.08;;
38629;SDS011;24384;51.988;4.644;2022-10-16T12:15:50;7.30;;;1.50;;
38629;SDS011;24384;51.988;4.644;2022-10-16T12:18:22;9.77;;;1.60;;
38629;SDS011;24384;51.988;4.644;2022-10-16T12:20:56;11.02;;;1.75;;
38629;SDS011;24384;51.988;4.644;2022-10-16T12:23:25;11.25;;;1.92;;
38629;SDS011;24384;51.988;4.644;2022-10-16T12:25:58;16.15;;;1.67;;
38629;SDS011;24384;51.988;4.644;2022-10-16T12:28:28;7.22;;;1.50;;
38629;SDS011;24384;51.988;4.644;2022-10-16T12:31:00;11.82;;;1.67;;
38629;SDS011;24384;51.988;4.644;2022-10-16T12:33:41;9.90;;;1.83;;
38629;SDS011;24384;51.988;4.644;2022-10-16T12:36:34;11.60;;;1.55;;
38629;SDS011;24384;51.988;4.644;2022-10-16T12:39:00;12.23;;;1.63;;
38629;SDS011;24384;51.988;4.644;2022-10-16T12:41:30;11.02;;;1.52;;
38629;SDS011;24384;51.988;4.644;2022-10-16T12:43:58;15.77;;;2.23;;
38629;SDS011;24384;51.988;4.644;2022-10-16T12:51:38;6.88;;;1.58;;
38629;SDS011;24384;51.988;4.644;2022-10-16T12:54:15;8.77;;;1.30;;
38629;SDS011;24384;51.988;4.644;2022-10-16T13:04:58;9.20;;;1.55;;
38629;SDS011;24384;51.988;4.644;2022-10-16T13:16:00;7.63;;;1.10;;
38629;SDS011;24384;51.988;4.644;2022-10-16T13:24:16;9.55;;;1.50;;
38629;SDS011;24384;51.988;4.644;2022-10-16T13:27:05;9.75;;;1.45;;
38629;SDS011;24384;51.988;4.644;2022-10-16T13:29:38;10.77;;;1.45;;
38629;SDS011;24384;51.988;4.644;2022-10-16T13:32:07;11.07;;;1.58;;
38629;SDS011;24384;51.988;4.644;2022-10-16T13:34:41;10.77;;;1.83;;
38629;SDS011;24384;51.988;4.644;2022-10-16T13:37:16;12.20;;;1.77;;
38629;SDS011;24384;51.988;4.644;2022-10-16T13:39:46;10.98;;;2.13;;
38629;SDS011;24384;51.988;4.644;2022-10-16T13:44:51;9.77;;;1.95;;
38629;SDS011;24384;51.988;4.644;2022-10-16T13:47:20;8.63;;;1.70;;
38629;SDS011;24384;51.988;4.644;2022-10-16T13:50:02;11.27;;;1.85;;
38629;SDS011;24384;51.988;4.644;2022-10-16T13:52:30;11.73;;;1.65;;
38629;SDS011;24384;51.988;4.644;2022-10-16T13:54:55;17.20;;;1.77;;
38629;SDS011;24384;51.988;4.644;2022-10-16T13:57:22;13.73;;;2.05;;
38629;SDS011;24384;51.988;4.644;2022-10-16T13:59:49;15.00;;;2.80;;
38629;SDS011;24384;51.988;4.644;2022-10-16T14:02:17;10.90;;;1.77;;
38629;SDS011;24384;51.988;4.644;2022-10-16T14:04:51;10.20;;;1.77;;
38629;SDS011;24384;51.988;4.644;2022-10-16T14:07:20;11.77;;;1.60;;
38629;SDS011;24384;51.988;4.644;2022-10-16T14:09:51;13.05;;;1.73;;
38629;SDS011;24384;51.988;4.644;2022-10-16T14:12:18;12.15;;;1.70;;
38629;SDS011;24384;51.988;4.644;2022-10-16T14:14:45;11.35;;;2.22;;
38629;SDS011;24384;51.988;4.644;2022-10-16T14:19:51;13.68;;;1.90;;
38629;SDS011;24384;51.988;4.644;2022-10-16T14:22:28;14.93;;;1.75;;
38629;SDS011;24384;51.988;4.644;2022-10-16T14:25:02;16.27;;;2.20;;
38629;SDS011;24384;51.988;4.644;2022-10-16T14:28:05;12.02;;;1.65;;
38629;SDS011;24384;51.988;4.644;2022-10-16T14:33:20;13.40;;;1.63;;
38629;SDS011;24384;51.988;4.644;2022-10-16T14:35:59;9.90;;;2.00;;
38629;SDS011;24384;51.988;4.644;2022-10-16T14:38:39;12.93;;;1.90;;
38629;SDS011;24384;51.988;4.644;2022-10-16T14:41:06;11.60;;;1.88;;
38629;SDS011;24384;51.988;4.644;2022-10-16T14:43:42;13.43;;;1.70;;
38629;SDS011;24384;51.988;4.644;2022-10-16T14:46:15;13.38;;;2.13;;
38629;SDS011;24384;51.988;4.644;2022-10-16T14:48:43;14.50;;;2.33;;
38629;SDS011;24384;51.988;4.644;2022-10-16T14:51:18;12.43;;;2.15;;
38629;SDS011;24384;51.988;4.644;2022-10-16T14:53:45;11.38;;;1.80;;
38629;SDS011;24384;51.988;4.644;2022-10-16T14:56:21;14.90;;;1.63;;
38629;SDS011;24384;51.988;4.644;2022-10-16T14:58:49;11.45;;;1.70;;
38629;SDS011;24384;51.988;4.644;2022-10-16T15:01:16;15.35;;;2.00;;
38629;SDS011;24384;51.988;4.644;2022-10-16T15:03:43;16.13;;;1.90;;
38629;SDS011;24384;51.988;4.644;2022-10-16T15:06:12;13.90;;;1.88;;
38629;SDS011;24384;51.988;4.644;2022-10-16T15:08:39;8.05;;;1.58;;
38629;SDS011;24384;51.988;4.644;2022-10-16T15:11:04;13.18;;;2.10;;
38629;SDS011;24384;51.988;4.644;2022-10-16T15:13:35;11.82;;;1.63;;
38629;SDS011;24384;51.988;4.644;2022-10-16T15:16:01;13.02;;;2.17;;
38629;SDS011;24384;51.988;4.644;2022-10-16T15:18:26;12.45;;;1.95;;
38629;SDS011;24384;51.988;4.644;2022-10-16T15:20:51;10.23;;;2.20;;
38629;SDS011;24384;51.988;4.644;2022-10-16T15:23:18;10.75;;;1.70;;
38629;SDS011;24384;51.988;4.644;2022-10-16T15:25:49;14.73;;;2.42;;
38629;SDS011;24384;51.988;4.644;2022-10-16T15:28:17;10.30;;;2.13;;
38629;SDS011;24384;51.988;4.644;2022-10-16T15:30:43;14.80;;;2.70;;
38629;SDS011;24384;51.988;4.644;2022-10-16T15:33:13;11.07;;;2.28;;
38629;SDS011;24384;51.988;4.644;2022-10-16T15:35:40;14.73;;;2.97;;
38629;SDS011;24384;51.988;4.644;2022-10-16T15:38:05;18.48;;;2.70;;
38629;SDS011;24384;51.988;4.644;2022-10-16T15:40:31;15.52;;;2.75;;
38629;SDS011;24384;51.988;4.644;2022-10-16T15:42:56;15.45;;;2.47;;
38629;SDS011;24384;51.988;4.644;2022-10-16T15:45:22;10.57;;;2.00;;
38629;SDS011;24384;51.988;4.644;2022-10-16T15:47:47;14.93;;;2.20;;
38629;SDS011;24384;51.988;4.644;2022-10-16T15:50:14;12.90;;;2.17;;
38629;SDS011;24384;51.988;4.644;2022-10-16T15:52:40;9.93;;;2.30;;
38629;SDS011;24384;51.988;4.644;2022-10-16T15:55:07;14.18;;;2.25;;
38629;SDS011;24384;51.988;4.644;2022-10-16T15:57:34;10.15;;;1.95;;
38629;SDS011;24384;51.988;4.644;2022-10-16T16:00:00;11.65;;;2.03;;
38629;SDS011;24384;51.988;4.644;2022-10-16T16:02:25;15.73;;;2.38;;
38629;SDS011;24384;51.988;4.644;2022-10-16T16:04:51;12.40;;;2.55;;
38629;SDS011;24384;51.988;4.644;2022-10-16T16:07:17;13.23;;;2.38;;
38629;SDS011;24384;51.988;4.644;2022-10-16T16:09:42;12.95;;;2.83;;
38629;SDS011;24384;51.988;4.644;2022-10-16T16:12:09;15.13;;;2.47;;
38629;SDS011;24384;51.988;4.644;2022-10-16T16:17:05;10.35;;;2.10;;
38629;SDS011;24384;51.988;4.644;2022-10-16T16:21:59;12.20;;;2.30;;
38629;SDS011;24384;51.988;4.644;2022-10-16T16:24:25;11.75;;;2.65;;
38629;SDS011;24384;51.988;4.644;2022-10-16T16:26:50;12.32;;;2.75;;
38629;SDS011;24384;51.988;4.644;2022-10-16T16:29:16;16.65;;;2.35;;
38629;SDS011;24384;51.988;4.644;2022-10-16T16:31:41;11.75;;;2.50;;
38629;SDS011;24384;51.988;4.644;2022-10-16T16:34:07;12.25;;;2.30;;
38629;SDS011;24384;51.988;4.644;2022-10-16T16:36:36;12.70;;;2.47;;
38629;SDS011;24384;51.988;4.644;2022-10-16T16:39:05;12.98;;;3.17;;
38629;SDS011;24384;51.988;4.644;2022-10-16T16:41:31;12.35;;;2.47;;
38629;SDS011;24384;51.988;4.644;2022-10-16T16:44:05;12.23;;;2.67;;
38629;SDS011;24384;51.988;4.644;2022-10-16T16:46:33;9.93;;;2.30;;
38629;SDS011;24384;51.988;4.644;2022-10-16T16:48:59;11.48;;;2.50;;
38629;SDS011;24384;51.988;4.644;2022-10-16T16:51:25;11.52;;;2.83;;
38629;SDS011;24384;51.988;4.644;2022-10-16T16:54:02;14.35;;;2.88;;
38629;SDS011;24384;51.988;4.644;2022-10-16T16:56:28;13.50;;;3.53;;
38629;SDS011;24384;51.988;4.644;2022-10-16T16:58:57;12.32;;;3.15;;
38629;SDS011;24384;51.988;4.644;2022-10-16T17:01:24;20.95;;;3.47;;
38629;SDS011;24384;51.988;4.644;2022-10-16T17:03:52;10.35;;;2.55;;